createdAt,value
2022-10-11T00:01:04.048Z,5.33
2022-10-11T00:03:34.815Z,5.67
2022-10-11T00:06:05.744Z,5.70
2022-10-11T00:08:36.380Z,5.73
2022-10-11T00:11:07.579Z,6.00
2022-10-11T00:13:36.502Z,5.60
2022-10-11T00:16:10.115Z,5.57
2022-10-11T00:18:39.283Z,5.90
2022-10-11T00:21:10.434Z,5.50
2022-10-11T00:23:40.360Z,4.80
2022-10-11T00:26:11.519Z,3.17
2022-10-11T00:28:40.290Z,3.00
2022-10-11T00:31:10.537Z,3.03
2022-10-11T00:33:38.913Z,2.80
2022-10-11T00:36:09.265Z,2.77
2022-10-11T00:38:39.613Z,2.77
2022-10-11T00:41:08.507Z,3.00
2022-10-11T00:43:37.576Z,2.63
2022-10-11T00:46:27.039Z,2.57
2022-10-11T00:49:02.068Z,2.53
2022-10-11T00:51:40.646Z,2.60
2022-10-11T00:54:16.609Z,2.60
2022-10-11T00:56:49.137Z,2.30
2022-10-11T00:59:24.074Z,2.20
2022-10-11T01:01:52.623Z,1.80
2022-10-11T01:04:20.863Z,1.80
2022-10-11T01:06:50.219Z,2.43
2022-10-11T01:09:21.397Z,2.37
2022-10-11T01:11:51.823Z,2.73
2022-10-11T01:14:53.830Z,3.10
2022-10-11T01:17:31.435Z,2.90
2022-10-11T01:20:43.204Z,3.00
2022-10-11T01:23:58.977Z,3.03
2022-10-11T01:27:35.818Z,3.50
2022-10-11T01:30:24.477Z,2.93
2022-10-11T01:33:07.654Z,3.37
2022-10-11T01:35:43.152Z,2.63
2022-10-11T01:38:19.155Z,2.73
2022-10-11T01:40:52.495Z,3.60
2022-10-11T01:43:22.860Z,3.17
2022-10-11T01:45:54.993Z,5.20
2022-10-11T01:48:23.436Z,3.03
2022-10-11T01:50:54.526Z,2.87
2022-10-11T01:53:43.796Z,2.97
2022-10-11T01:56:27.419Z,3.17
2022-10-11T01:59:14.606Z,4.73
2022-10-11T02:01:56.283Z,4.47
2022-10-11T02:04:33.410Z,4.80
2022-10-11T02:07:09.687Z,3.97
2022-10-11T02:09:44.147Z,4.50
2022-10-11T02:12:17.575Z,5.80
2022-10-11T02:14:50.219Z,4.70
2022-10-11T02:17:23.047Z,4.13
2022-10-11T02:19:56.107Z,4.23
2022-10-11T02:22:30.137Z,4.20
2022-10-11T02:25:03.094Z,5.20
2022-10-11T02:27:35.494Z,3.83
2022-10-11T02:30:08.372Z,3.60
2022-10-11T02:32:42.109Z,4.40
2022-10-11T02:35:12.814Z,4.33
2022-10-11T02:37:47.744Z,3.87
2022-10-11T02:40:22.705Z,4.00
2022-10-11T02:42:58.631Z,4.40
2022-10-11T02:45:32.917Z,3.83
2022-10-11T02:48:02.851Z,4.37
2022-10-11T02:50:31.550Z,4.73
2022-10-11T02:53:00.206Z,4.90
2022-10-11T02:55:28.403Z,4.77
2022-10-11T02:57:56.583Z,5.53
2022-10-11T03:00:24.873Z,6.33
2022-10-11T03:11:36.296Z,5.57
2022-10-11T03:14:04.626Z,5.23
2022-10-11T03:16:32.882Z,5.70
2022-10-11T03:19:01.125Z,6.63
2022-10-11T03:21:29.340Z,5.27
2022-10-11T03:23:59.027Z,5.50
2022-10-11T03:26:31.105Z,5.23
2022-10-11T03:28:59.654Z,5.63
2022-10-11T03:31:28.203Z,5.50
2022-10-11T03:33:57.262Z,5.40
2022-10-11T03:36:29.988Z,6.37
2022-10-11T03:39:03.036Z,6.57
2022-10-11T03:41:31.707Z,6.90
2022-10-11T03:44:00.289Z,7.10
2022-10-11T03:46:28.537Z,7.70
2022-10-11T03:48:56.871Z,8.37
2022-10-11T03:51:25.097Z,7.83
2022-10-11T03:53:53.324Z,6.97
2022-10-11T03:56:23.261Z,6.97
2022-10-11T03:58:51.510Z,7.07
2022-10-11T04:01:20.088Z,7.03
2022-10-11T04:03:58.669Z,6.87
2022-10-11T04:06:27.300Z,6.97
2022-10-11T04:08:55.515Z,6.83
2022-10-11T04:11:25.103Z,7.67
2022-10-11T04:13:53.318Z,6.90
2022-10-11T04:16:46.618Z,6.90
2022-10-11T04:19:15.343Z,6.67
2022-10-11T04:21:43.618Z,7.23
2022-10-11T04:24:13.310Z,7.40
2022-10-11T04:26:42.871Z,7.70
2022-10-11T04:29:11.971Z,7.77
2022-10-11T04:31:40.307Z,7.10
2022-10-11T04:34:08.978Z,7.53
2022-10-11T04:36:38.978Z,7.50
2022-10-11T04:39:07.422Z,11.60
2022-10-11T04:41:36.244Z,8.03
2022-10-11T04:44:06.237Z,7.40
2022-10-11T04:46:34.464Z,15.30
2022-10-11T04:49:02.616Z,8.73
2022-10-11T04:51:30.908Z,7.93
2022-10-11T04:53:59.099Z,7.53
2022-10-11T04:56:27.481Z,7.50
2022-10-11T04:58:55.807Z,8.63
2022-10-11T05:01:25.528Z,8.70
2022-10-11T05:03:53.750Z,9.67
2022-10-11T05:07:12.207Z,9.80
2022-10-11T05:09:41.874Z,10.20
2022-10-11T05:12:37.490Z,10.63
2022-10-11T05:15:10.684Z,10.53
2022-10-11T05:18:31.604Z,11.17
2022-10-11T05:21:01.903Z,10.93
2022-10-11T05:23:56.426Z,12.30
2022-10-11T05:26:27.445Z,11.53
2022-10-11T05:28:56.363Z,12.00
2022-10-11T05:31:25.191Z,12.17
2022-10-11T05:34:19.898Z,13.17
2022-10-11T05:36:48.314Z,15.40
2022-10-11T05:39:16.543Z,19.90
2022-10-11T05:41:44.843Z,16.77
2022-10-11T05:44:13.131Z,17.33
2022-10-11T05:46:41.384Z,21.50
2022-10-11T05:49:09.604Z,20.37
2022-10-11T05:51:39.280Z,19.00
2022-10-11T05:54:09.074Z,16.50
2022-10-11T05:56:37.441Z,14.73
2022-10-11T05:59:06.259Z,15.77
2022-10-11T06:01:34.691Z,15.03
2022-10-11T06:04:06.738Z,15.10
2022-10-11T06:06:41.143Z,15.40
2022-10-11T06:09:09.348Z,17.07
2022-10-11T06:11:37.733Z,17.60
2022-10-11T06:14:05.939Z,18.93
2022-10-11T06:16:34.142Z,19.30
2022-10-11T06:19:02.453Z,17.10
2022-10-11T06:21:30.733Z,18.07
2022-10-11T06:24:01.839Z,18.10
2022-10-11T06:26:30.968Z,21.33
2022-10-11T06:28:59.514Z,20.43
2022-10-11T06:31:27.776Z,22.57
2022-10-11T06:33:55.996Z,20.10
2022-10-11T06:36:24.665Z,22.23
2022-10-11T06:38:53.600Z,20.20
2022-10-11T06:41:26.927Z,18.73
2022-10-11T06:43:55.433Z,18.67
2022-10-11T06:46:26.980Z,18.57
2022-10-11T06:48:56.403Z,17.30
2022-10-11T06:51:25.108Z,16.53
2022-10-11T06:53:55.544Z,17.70
2022-10-11T06:56:26.846Z,16.13
2022-10-11T06:58:56.702Z,14.90
2022-10-11T07:01:25.932Z,15.23
2022-10-11T07:03:56.914Z,13.70
2022-10-11T07:06:27.872Z,12.33
2022-10-11T07:08:56.744Z,12.90
2022-10-11T07:11:28.886Z,12.70
2022-10-11T07:13:59.240Z,12.33
2022-10-11T07:16:28.579Z,13.00
2022-10-11T07:19:01.679Z,12.17
2022-10-11T07:21:32.410Z,12.17
2022-10-11T07:24:00.928Z,12.13
2022-10-11T07:26:36.776Z,12.43
2022-10-11T07:29:12.351Z,13.00
2022-10-11T07:31:43.195Z,11.07
2022-10-11T07:34:11.892Z,12.77
2022-10-11T07:36:40.375Z,12.77
2022-10-11T07:39:09.714Z,11.97
2022-10-11T07:41:44.630Z,12.27
2022-10-11T07:44:14.154Z,12.13
2022-10-11T07:46:42.399Z,12.87
2022-10-11T07:49:10.640Z,11.37
2022-10-11T07:51:38.922Z,12.70
2022-10-11T07:54:07.653Z,11.97
2022-10-11T07:56:36.317Z,12.00
2022-10-11T07:59:06.346Z,12.67
2022-10-11T08:01:34.719Z,12.43
2022-10-11T08:04:04.039Z,11.87
2022-10-11T08:06:32.995Z,11.90
2022-10-11T08:09:02.748Z,12.10
2022-10-11T08:11:33.936Z,12.40
2022-10-11T08:14:04.406Z,11.53
2022-10-11T08:16:34.038Z,13.57
2022-10-11T08:19:27.324Z,11.83
2022-10-11T08:21:55.602Z,11.87
2022-10-11T08:24:25.019Z,12.83
2022-10-11T08:26:53.668Z,13.00
2022-10-11T08:29:21.835Z,12.77
2022-10-11T08:31:51.497Z,12.73
2022-10-11T08:34:19.707Z,13.10
2022-10-11T08:36:48.561Z,12.67
2022-10-11T08:39:16.949Z,12.23
2022-10-11T08:41:49.653Z,12.40
2022-10-11T08:45:05.380Z,12.27
2022-10-11T08:47:30.462Z,13.00
2022-10-11T08:50:00.235Z,12.33
2022-10-11T08:52:32.639Z,13.13
2022-10-11T08:55:08.200Z,13.33
2022-10-11T08:57:39.603Z,12.67
2022-10-11T09:00:15.366Z,13.67
2022-10-11T09:03:08.148Z,14.03
2022-10-11T09:05:47.536Z,13.27
2022-10-11T09:08:23.213Z,12.83
2022-10-11T09:11:07.650Z,14.07
2022-10-11T09:13:56.344Z,12.50
2022-10-11T09:16:35.182Z,12.97
2022-10-11T09:19:29.340Z,12.43
2022-10-11T09:22:09.536Z,13.20
2022-10-11T09:24:54.081Z,12.60
2022-10-11T09:27:50.357Z,13.40
2022-10-11T09:30:20.191Z,12.97
2022-10-11T09:32:55.315Z,14.60
2022-10-11T09:35:24.846Z,13.97
2022-10-11T09:38:02.994Z,13.40
2022-10-11T09:40:44.768Z,12.87
2022-10-11T09:43:13.491Z,13.67
2022-10-11T09:45:49.266Z,13.50
2022-10-11T09:48:22.775Z,13.47
2022-10-11T09:50:56.097Z,13.93
2022-10-11T09:53:52.595Z,14.03
2022-10-11T09:56:21.579Z,14.03
2022-10-11T09:58:50.193Z,13.97
2022-10-11T10:01:54.549Z,13.77
2022-10-11T10:05:07.982Z,14.70
2022-10-11T10:07:41.444Z,14.20
2022-10-11T10:10:31.048Z,14.67
2022-10-11T10:13:02.982Z,13.47
2022-10-11T10:15:33.385Z,14.63
2022-10-11T10:18:02.840Z,13.07
2022-10-11T10:20:34.373Z,14.63
2022-10-11T10:23:10.558Z,16.40
2022-10-11T10:25:43.588Z,13.83
2022-10-11T10:28:24.243Z,14.83
2022-10-11T10:30:55.207Z,14.50
2022-10-11T10:33:26.518Z,14.17
2022-10-11T10:36:00.200Z,15.30
2022-10-11T10:38:34.552Z,14.10
2022-10-11T10:41:05.792Z,14.67
2022-10-11T10:43:37.114Z,14.20
2022-10-11T10:46:48.090Z,14.23
2022-10-11T10:49:52.031Z,14.53
2022-10-11T10:52:58.375Z,14.73
2022-10-11T10:55:36.342Z,14.57
2022-10-11T10:58:15.069Z,13.37
2022-10-11T11:00:50.270Z,13.40
2022-10-11T11:03:25.620Z,11.93
2022-10-11T11:06:03.211Z,10.52
2022-10-11T11:08:57.401Z,12.93
2022-10-11T11:11:47.117Z,12.50
2022-10-11T11:14:30.096Z,11.88
2022-10-11T11:17:13.951Z,11.98
2022-10-11T11:19:59.110Z,11.80
2022-10-11T11:22:39.805Z,11.35
2022-10-11T11:25:23.698Z,12.60
2022-10-11T11:28:10.692Z,10.57
2022-10-11T11:30:53.646Z,10.60
2022-10-11T11:33:36.130Z,10.52
2022-10-11T11:36:12.025Z,10.20
2022-10-11T11:38:46.482Z,8.35
2022-10-11T11:41:22.415Z,13.65
2022-10-11T11:44:03.650Z,9.25
2022-10-11T11:46:38.344Z,14.20
2022-10-11T11:49:17.855Z,10.60
2022-10-11T11:51:48.626Z,8.75
2022-10-11T11:54:31.800Z,8.60
2022-10-11T11:57:05.592Z,11.52
2022-10-11T11:59:44.272Z,11.20
2022-10-11T12:02:39.877Z,8.32
2022-10-11T12:05:09.841Z,7.50
2022-10-11T12:07:55.582Z,6.80
2022-10-11T12:10:40.139Z,8.02
2022-10-11T12:13:22.553Z,8.27
2022-10-11T12:16:03.031Z,9.38
2022-10-11T12:18:32.297Z,8.32
2022-10-11T12:21:07.392Z,9.77
2022-10-11T12:23:58.926Z,9.95
2022-10-11T12:26:37.308Z,10.15
2022-10-11T12:29:48.395Z,10.27
2022-10-11T12:32:52.930Z,9.07
2022-10-11T12:36:01.463Z,9.30
2022-10-11T12:38:34.888Z,8.80
2022-10-11T12:41:37.683Z,9.25
2022-10-11T12:44:20.639Z,9.25
2022-10-11T12:47:33.044Z,8.68
2022-10-11T12:50:17.199Z,8.60
2022-10-11T12:53:01.406Z,8.18
2022-10-11T12:55:47.959Z,8.98
2022-10-11T12:58:27.867Z,8.73
2022-10-11T13:01:21.628Z,9.40
2022-10-11T13:04:05.597Z,9.57
2022-10-11T13:06:46.471Z,9.57
2022-10-11T13:09:24.347Z,8.68
2022-10-11T13:11:57.459Z,8.38
2022-10-11T13:14:28.801Z,9.35
2022-10-11T13:17:09.484Z,8.90
2022-10-11T13:22:22.937Z,7.95
2022-10-11T13:24:51.322Z,9.25
2022-10-11T13:27:23.029Z,8.88
2022-10-11T13:29:53.541Z,8.60
2022-10-11T13:32:25.588Z,9.52
2022-10-11T13:34:57.584Z,24.33
2022-10-11T13:37:29.460Z,14.00
2022-10-11T13:39:58.664Z,11.15
2022-10-11T13:42:31.960Z,9.38
2022-10-11T13:45:01.241Z,9.25
2022-10-11T13:47:32.056Z,10.10
2022-10-11T13:50:11.889Z,9.00
2022-10-11T13:52:55.464Z,8.68
2022-10-11T13:55:28.675Z,8.70
2022-10-11T13:57:59.548Z,9.00
2022-10-11T14:00:33.614Z,8.70
2022-10-11T14:03:31.989Z,7.95
2022-10-11T14:06:01.494Z,8.65
2022-10-11T14:08:37.818Z,7.82
2022-10-11T14:11:07.715Z,7.90
2022-10-11T14:13:39.642Z,7.80
2022-10-11T14:16:11.291Z,7.43
2022-10-11T14:18:46.829Z,7.47
2022-10-11T14:21:33.293Z,7.55
2022-10-11T14:24:06.133Z,6.88
2022-10-11T14:26:37.321Z,7.05
2022-10-11T14:29:09.601Z,7.15
2022-10-11T14:31:41.979Z,6.80
2022-10-11T14:34:18.326Z,6.63
2022-10-11T14:36:46.945Z,6.15
2022-10-11T14:39:19.890Z,6.60
2022-10-11T14:41:48.406Z,8.23
2022-10-11T14:44:17.075Z,7.78
2022-10-11T14:46:46.652Z,7.35
2022-10-11T14:49:16.846Z,7.38
2022-10-11T14:51:47.452Z,7.05
2022-10-11T14:54:22.211Z,6.47
2022-10-11T14:56:50.791Z,6.30
2022-10-11T14:59:22.877Z,7.32
2022-10-11T15:01:53.540Z,7.38
2022-10-11T15:04:22.965Z,6.40
2022-10-11T15:06:52.400Z,6.55
2022-10-11T15:09:22.310Z,6.80
2022-10-11T15:11:52.637Z,6.78
2022-10-11T15:14:20.867Z,7.63
2022-10-11T15:16:49.435Z,7.35
2022-10-11T15:19:19.720Z,7.75
2022-10-11T15:21:49.399Z,7.75
2022-10-11T15:24:19.867Z,7.15
2022-10-11T15:26:50.452Z,7.85
2022-10-11T15:29:21.766Z,7.97
2022-10-11T15:31:50.286Z,8.00
2022-10-11T15:34:18.760Z,7.50
2022-10-11T15:36:47.406Z,6.57
2022-10-11T15:39:27.539Z,7.57
2022-10-11T15:41:58.375Z,6.72
2022-10-11T15:44:26.836Z,7.07
2022-10-11T15:46:55.132Z,7.32
2022-10-11T15:49:23.364Z,6.85
2022-10-11T15:51:51.691Z,8.13
2022-10-11T15:54:19.875Z,8.07
2022-10-11T15:56:48.215Z,8.27
2022-10-11T15:59:18.166Z,7.75
2022-10-11T16:01:46.971Z,7.68
2022-10-11T16:04:41.319Z,7.07
2022-10-11T16:07:09.513Z,7.72
2022-10-11T16:09:37.748Z,7.60
2022-10-11T16:12:06.487Z,9.63
2022-10-11T16:14:36.258Z,8.50
2022-10-11T16:17:05.595Z,8.23
2022-10-11T16:19:33.804Z,8.05
2022-10-11T16:22:02.048Z,8.18
2022-10-11T16:24:30.312Z,8.82
2022-10-11T16:26:58.516Z,8.93
2022-10-11T16:29:26.786Z,10.68
2022-10-11T16:31:56.366Z,16.13
2022-10-11T16:34:24.843Z,21.05
2022-10-11T16:36:53.091Z,16.73
2022-10-11T16:39:21.390Z,11.95
2022-10-11T16:41:49.621Z,9.50
2022-10-11T16:44:20.461Z,8.57
2022-10-11T16:46:49.958Z,9.60
2022-10-11T16:49:22.968Z,9.53
2022-10-11T16:51:52.172Z,8.87
2022-10-11T16:54:21.792Z,10.90
2022-10-11T16:56:51.121Z,9.27
2022-10-11T16:59:19.429Z,8.50
2022-10-11T17:01:47.880Z,9.33
2022-10-11T17:04:16.317Z,8.40
2022-10-11T17:06:46.067Z,8.70
2022-10-11T17:09:15.887Z,8.83
2022-10-11T17:11:44.315Z,7.47
2022-10-11T17:14:13.930Z,7.80
2022-10-11T17:16:42.464Z,8.47
2022-10-11T17:19:13.069Z,8.57
2022-10-11T17:21:41.745Z,8.40
2022-10-11T17:24:11.364Z,8.63
2022-10-11T17:26:39.634Z,8.50
2022-10-11T17:29:07.878Z,8.83
2022-10-11T17:31:38.384Z,9.50
2022-10-11T17:34:06.835Z,8.20
2022-10-11T17:36:35.531Z,8.73
2022-10-11T17:39:07.532Z,8.53
2022-10-11T17:41:37.175Z,8.60
2022-10-11T17:44:06.294Z,8.73
2022-10-11T17:46:34.674Z,9.13
2022-10-11T17:49:05.278Z,8.73
2022-10-11T17:51:33.817Z,9.17
2022-10-11T17:54:02.195Z,8.50
2022-10-11T17:56:36.577Z,7.77
2022-10-11T17:59:08.760Z,9.43
2022-10-11T18:01:40.072Z,9.10
2022-10-11T18:04:16.225Z,8.87
2022-10-11T18:06:46.620Z,9.67
2022-10-11T18:09:17.130Z,9.50
2022-10-11T18:11:45.925Z,9.33
2022-10-11T18:14:15.621Z,9.20
2022-10-11T18:16:43.871Z,8.90
2022-10-11T18:19:14.174Z,9.23
2022-10-11T18:21:43.070Z,9.80
2022-10-11T18:24:16.005Z,10.03
2022-10-11T18:26:44.461Z,10.37
2022-10-11T18:29:13.468Z,10.57
2022-10-11T18:31:43.337Z,11.83
2022-10-11T18:34:14.748Z,11.60
2022-10-11T18:36:43.393Z,12.47
2022-10-11T18:39:15.642Z,11.50
2022-10-11T18:41:44.948Z,11.77
2022-10-11T18:44:16.324Z,11.33
2022-10-11T18:46:46.599Z,10.40
2022-10-11T18:49:15.139Z,10.00
2022-10-11T18:51:44.018Z,14.93
2022-10-11T18:54:16.725Z,11.03
2022-10-11T18:56:48.493Z,9.73
2022-10-11T18:59:17.063Z,7.93
2022-10-11T19:01:47.952Z,9.10
2022-10-11T19:04:17.115Z,10.67
2022-10-11T19:06:48.404Z,9.80
2022-10-11T19:09:21.680Z,10.77
2022-10-11T19:11:51.146Z,11.57
2022-10-11T19:14:22.515Z,10.50
2022-10-11T19:16:55.051Z,10.70
2022-10-11T19:19:25.844Z,9.83
2022-10-11T19:21:54.396Z,9.07
2022-10-11T19:24:25.836Z,8.97
2022-10-11T19:26:58.419Z,11.43
2022-10-11T19:29:30.490Z,12.70
2022-10-11T19:32:02.915Z,11.30
2022-10-11T19:34:32.687Z,12.43
2022-10-11T19:37:03.236Z,11.13
2022-10-11T19:39:31.977Z,11.60
2022-10-11T19:42:01.266Z,10.97
2022-10-11T19:44:29.552Z,11.60
2022-10-11T19:47:04.196Z,10.93
2022-10-11T19:49:33.309Z,10.17
2022-10-11T19:52:02.071Z,10.30
2022-10-11T19:54:30.624Z,9.30
2022-10-11T19:56:58.815Z,10.60
2022-10-11T19:59:28.092Z,9.80
2022-10-11T20:01:56.372Z,11.30
2022-10-11T20:04:50.994Z,10.23
2022-10-11T20:07:17.550Z,10.20
2022-10-11T20:09:46.153Z,10.70
2022-10-11T20:12:14.392Z,10.33
2022-10-11T20:14:42.720Z,10.37
2022-10-11T20:17:11.306Z,11.03
2022-10-11T20:19:41.347Z,10.13
2022-10-11T20:22:09.601Z,10.57
2022-10-11T20:24:37.827Z,11.07
2022-10-11T20:27:07.346Z,9.73
2022-10-11T20:29:35.554Z,10.20
2022-10-11T20:32:03.795Z,10.10
2022-10-11T20:34:32.403Z,10.10
2022-10-11T20:37:01.950Z,9.70
2022-10-11T20:39:30.479Z,11.00
2022-10-11T20:41:58.736Z,10.67
2022-10-11T20:44:27.100Z,12.10
2022-10-11T20:46:55.282Z,11.87
2022-10-11T20:49:23.494Z,10.47
2022-10-11T20:51:52.162Z,11.53
2022-10-11T20:54:21.787Z,11.20
2022-10-11T20:56:50.001Z,11.23
2022-10-11T20:59:18.176Z,11.03
2022-10-11T21:01:46.507Z,11.13
2022-10-11T21:04:19.960Z,9.90
2022-10-11T21:06:49.653Z,10.50
2022-10-11T21:09:19.077Z,10.23
2022-10-11T21:11:48.638Z,10.00
2022-10-11T21:14:17.247Z,8.40
2022-10-11T21:16:45.479Z,7.80
2022-10-11T21:19:16.024Z,8.07
2022-10-11T21:21:50.874Z,9.00
2022-10-11T21:24:21.423Z,8.87
2022-10-11T21:26:51.023Z,9.00
2022-10-11T21:29:19.493Z,8.87
2022-10-11T21:31:47.685Z,9.00
2022-10-11T21:34:16.147Z,8.03
2022-10-11T21:36:44.493Z,7.73
2022-10-11T21:39:12.721Z,8.63
2022-10-11T21:41:42.241Z,8.40
2022-10-11T21:44:11.937Z,8.00
2022-10-11T21:47:06.615Z,8.70
2022-10-11T21:49:28.493Z,8.30
2022-10-11T21:51:56.795Z,8.87
2022-10-11T21:54:24.988Z,8.10
2022-10-11T21:56:53.341Z,9.13
2022-10-11T21:59:22.965Z,8.83
2022-10-11T22:01:51.294Z,9.20
2022-10-11T22:04:19.659Z,8.43
2022-10-11T22:06:49.068Z,8.90
2022-10-11T22:09:17.331Z,9.27
2022-10-11T22:11:45.522Z,8.97
2022-10-11T22:14:13.754Z,9.13
2022-10-11T22:16:43.320Z,9.03
2022-10-11T22:19:11.650Z,9.23
2022-10-11T22:21:44.122Z,9.60
2022-10-11T22:24:13.379Z,9.03
2022-10-11T22:26:41.626Z,8.67
2022-10-11T22:29:09.882Z,9.20
2022-10-11T22:31:38.071Z,8.57
2022-10-11T22:34:07.657Z,8.10
2022-10-11T22:36:36.023Z,8.50
2022-10-11T22:39:07.743Z,10.50
2022-10-11T22:41:36.916Z,9.37
2022-10-11T22:44:05.881Z,10.10
2022-10-11T22:46:34.419Z,10.80
2022-10-11T22:49:02.669Z,9.90
2022-10-11T22:51:32.275Z,10.87
2022-10-11T22:54:00.470Z,10.00
2022-10-11T22:56:28.672Z,8.60
2022-10-11T22:58:57.091Z,9.00
2022-10-11T23:01:25.257Z,8.23
2022-10-11T23:03:54.026Z,8.13
2022-10-11T23:06:22.307Z,8.00
2022-10-11T23:08:51.892Z,8.20
2022-10-11T23:11:20.080Z,8.53
2022-10-11T23:13:48.328Z,7.77
2022-10-11T23:16:16.563Z,7.03
2022-10-11T23:18:45.035Z,8.53
2022-10-11T23:21:13.291Z,6.90
2022-10-11T23:23:41.511Z,7.33
2022-10-11T23:26:14.457Z,7.20
2022-10-11T23:28:43.549Z,7.50
2022-10-11T23:31:14.268Z,7.93
2022-10-11T23:33:42.584Z,8.13
2022-10-11T23:36:15.728Z,7.87
2022-10-11T23:38:44.121Z,8.97
2022-10-11T23:41:13.822Z,8.20
2022-10-11T23:43:42.042Z,8.00
2022-10-11T23:46:10.298Z,8.13
2022-10-11T23:48:38.449Z,9.07
2022-10-11T23:51:07.306Z,9.03
2022-10-11T23:53:36.203Z,8.77
2022-10-11T23:56:04.766Z,8.60
2022-10-11T23:58:34.548Z,8.57
